Time;durP1;ratioP1;P1;durP2;ratioP2;P2;SDS_P1;SDS_P2;PMS_P1;PMS_P2;Temp;Humidity;BMP_temperature;BMP_pressure;BME280_temperature;BME280_humidity;BME280_pressure;Samples;Min_cycle;Max_cycle;Signal;HPM_P1;HPM_P2
2023/01/06 00:01:17;;;;;;;5.78;1.85;;;;;;;;;;5074691;28;20040;-88
2023/01/06 00:03:43;;;;;;;2.50;2.30;;;;;;;;;;5074705;28;20057;-88
2023/01/06 00:06:10;;;;;;;0.60;0.60;;;;;;;;;;5074782;28;20048;-88
2023/01/06 00:08:37;;;;;;;3.75;2.42;;;;;;;;;;5074528;28;20094;-88
2023/01/06 00:11:07;;;;;;;2.72;2.55;;;;;;;;;;5074692;28;20052;-89
2023/01/06 00:13:33;;;;;;;2.50;2.40;;;;;;;;;;5074569;28;20056;-88
2023/01/06 00:16:03;;;;;;;1.67;1.58;;;;;;;;;;5074402;28;20053;-88
2023/01/06 00:18:31;;;;;;;2.22;2.00;;;;;;;;;;5070547;28;20462;-88
2023/01/06 00:20:58;;;;;;;1.92;1.83;;;;;;;;;;5074292;28;20056;-88
2023/01/06 00:23:25;;;;;;;2.40;2.30;;;;;;;;;;5074343;28;20044;-88
2023/01/06 00:25:52;;;;;;;4.00;3.67;;;;;;;;;;5073971;28;20103;-88
2023/01/06 00:28:18;;;;;;;3.88;3.63;;;;;;;;;;5074456;28;20098;-89
2023/01/06 00:30:45;;;;;;;6.15;3.03;;;;;;;;;;5074500;28;20044;-90
2023/01/06 00:33:11;;;;;;;3.38;3.17;;;;;;;;;;5073967;28;20045;-90
2023/01/06 00:35:39;;;;;;;3.67;2.05;;;;;;;;;;5074445;28;20098;-90
2023/01/06 00:38:06;;;;;;;3.10;3.00;;;;;;;;;;5074386;28;20458;-89
2023/01/06 00:40:32;;;;;;;1.05;1.05;;;;;;;;;;5073739;28;20118;-89
2023/01/06 00:42:59;;;;;;;6.25;3.85;;;;;;;;;;5073876;28;20446;-88
2023/01/06 00:45:25;;;;;;;4.47;4.22;;;;;;;;;;5073828;28;20469;-88
2023/01/06 00:47:52;;;;;;;2.33;2.22;;;;;;;;;;5073937;28;20101;-88
2023/01/06 00:50:18;;;;;;;1.92;1.83;;;;;;;;;;5073297;28;20118;-88
2023/01/06 00:52:47;;;;;;;2.17;1.98;;;;;;;;;;5073524;28;20098;-88
2023/01/06 00:55:14;;;;;;;2.67;2.55;;;;;;;;;;5073704;28;20135;-89
2023/01/06 00:57:40;;;;;;;1.52;1.42;;;;;;;;;;5073851;28;20044;-88
2023/01/06 01:00:07;;;;;;;1.73;1.52;;;;;;;;;;5072957;28;20052;-89
2023/01/06 01:02:34;;;;;;;1.60;1.45;;;;;;;;;;5073426;28;20110;-89
2023/01/06 01:05:01;;;;;;;3.22;3.13;;;;;;;;;;5073570;28;20106;-88
2023/01/06 01:07:27;;;;;;;1.58;1.48;;;;;;;;;;5068571;28;20045;-89
2023/01/06 01:09:55;;;;;;;4.65;2.92;;;;;;;;;;5073252;28;20049;-88
2023/01/06 01:12:22;;;;;;;3.45;3.25;;;;;;;;;;5073257;28;20106;-88
2023/01/06 01:14:49;;;;;;;1.58;1.48;;;;;;;;;;5073249;28;20048;-89
2023/01/06 01:17:16;;;;;;;1.50;1.40;;;;;;;;;;5073113;28;20103;-88
2023/01/06 01:19:43;;;;;;;0.85;0.85;;;;;;;;;;5073237;28;20114;-89
2023/01/06 01:22:09;;;;;;;3.15;2.95;;;;;;;;;;5073093;28;20463;-89
2023/01/06 01:24:36;;;;;;;1.80;1.70;;;;;;;;;;5073031;28;20048;-89
2023/01/06 01:27:04;;;;;;;1.33;1.27;;;;;;;;;;5072796;28;20045;-89
2023/01/06 01:29:30;;;;;;;2.65;2.05;;;;;;;;;;5073139;28;20102;-88
2023/01/06 01:31:57;;;;;;;2.20;2.05;;;;;;;;;;5072918;28;20489;-89
2023/01/06 01:34:23;;;;;;;1.60;1.52;;;;;;;;;;5072803;28;20474;-88
2023/01/06 01:36:51;;;;;;;3.67;3.40;;;;;;;;;;5073143;28;20102;-89
2023/01/06 01:39:19;;;;;;;1.23;1.13;;;;;;;;;;5072995;28;20049;-89
2023/01/06 01:41:46;;;;;;;3.80;3.55;;;;;;;;;;5073038;28;20077;-88
2023/01/06 01:44:31;;;;;;;1.77;1.65;;;;;;;;;;5058921;28;20103;-88
2023/01/06 01:46:59;;;;;;;5.10;4.85;;;;;;;;;;5052946;28;20464;-88
2023/01/06 01:49:27;;;;;;;3.17;2.97;;;;;;;;;;5052694;28;20052;-88
2023/01/06 01:51:54;;;;;;;1.88;1.77;;;;;;;;;;5052888;28;20136;-88
2023/01/06 01:54:22;;;;;;;2.13;2.00;;;;;;;;;;5052914;28;20064;-88
2023/01/06 01:56:51;;;;;;;5.72;5.38;;;;;;;;;;5052534;28;20460;-88
2023/01/06 01:59:20;;;;;;;1.25;1.23;;;;;;;;;;5057326;28;20052;-90
2023/01/06 02:01:47;;;;;;;2.13;1.63;;;;;;;;;;5052793;28;20463;-89
2023/01/06 02:04:15;;;;;;;2.20;1.98;;;;;;;;;;5052265;28;20049;-89
2023/01/06 02:06:42;;;;;;;2.20;2.10;;;;;;;;;;5052264;28;20107;-89
2023/01/06 02:09:12;;;;;;;4.53;2.60;;;;;;;;;;5055048;28;21640;-89
2023/01/06 02:11:39;;;;;;;0.77;0.77;;;;;;;;;;5072342;28;20044;-89
2023/01/06 02:14:09;;;;;;;0.77;0.77;;;;;;;;;;5072785;28;20052;-89
2023/01/06 02:16:39;;;;;;;2.03;1.90;;;;;;;;;;5071527;28;20102;-88
2023/01/06 02:19:12;;;;;;;2.58;2.38;;;;;;;;;;5072572;28;20075;-88
2023/01/06 02:21:48;;;;;;;1.52;1.42;;;;;;;;;;5072468;28;20106;-88
2023/01/06 02:24:45;;;;;;;2.13;1.92;;;;;;;;;;5072185;28;20053;-89
2023/01/06 02:27:38;;;;;;;4.90;4.43;;;;;;;;;;5010407;28;20042;-88
2023/01/06 02:30:23;;;;;;;2.20;2.10;;;;;;;;;;4952103;29;20054;-88
2023/01/06 02:32:56;;;;;;;3.17;2.97;;;;;;;;;;4951624;28;20047;-89
2023/01/06 02:35:32;;;;;;;3.28;3.03;;;;;;;;;;4952014;29;20150;-88
2023/01/06 02:38:04;;;;;;;4.18;3.17;;;;;;;;;;4951928;29;20087;-88
2023/01/06 02:40:39;;;;;;;2.75;2.03;;;;;;;;;;4951816;29;20422;-88
2023/01/06 02:43:11;;;;;;;5.55;5.15;;;;;;;;;;4951726;29;20471;-88
2023/01/06 02:45:42;;;;;;;1.35;1.35;;;;;;;;;;4951940;29;20059;-88
2023/01/06 02:48:11;;;;;;;2.28;2.00;;;;;;;;;;4951819;29;20055;-88
2023/01/06 02:50:41;;;;;;;3.63;3.33;;;;;;;;;;4951203;29;20048;-88
2023/01/06 02:53:11;;;;;;;1.75;1.30;;;;;;;;;;4951975;29;20135;-88
2023/01/06 02:55:39;;;;;;;6.15;5.53;;;;;;;;;;4951953;29;20051;-88
2023/01/06 02:58:10;;;;;;;3.03;2.92;;;;;;;;;;4932930;29;20051;-88
2023/01/06 03:00:38;;;;;;;4.63;4.32;;;;;;;;;;4947107;28;20053;-88
2023/01/06 03:03:07;;;;;;;3.50;3.22;;;;;;;;;;5010158;28;20054;-88
2023/01/06 03:05:35;;;;;;;2.40;2.17;;;;;;;;;;5031857;28;20048;-89
2023/01/06 03:08:05;;;;;;;2.10;2.00;;;;;;;;;;5072147;28;20052;-89
2023/01/06 03:10:31;;;;;;;4.50;4.10;;;;;;;;;;5072071;28;20460;-88
2023/01/06 03:13:01;;;;;;;1.75;1.65;;;;;;;;;;5072215;28;20457;-89
2023/01/06 03:15:28;;;;;;;2.53;2.33;;;;;;;;;;5072172;28;20044;-89
2023/01/06 03:17:55;;;;;;;4.40;4.07;;;;;;;;;;5073188;28;20416;-89
2023/01/06 03:20:21;;;;;;;2.30;2.08;;;;;;;;;;5075658;28;20045;-89
2023/01/06 03:22:49;;;;;;;3.17;3.05;;;;;;;;;;5074421;28;20052;-88
2023/01/06 03:25:16;;;;;;;2.67;2.10;;;;;;;;;;5075039;28;20049;-88
2023/01/06 03:27:42;;;;;;;1.80;1.67;;;;;;;;;;5075636;28;20053;-89
2023/01/06 03:30:10;;;;;;;5.03;4.72;;;;;;;;;;5075177;28;20447;-89
2023/01/06 03:32:43;;;;;;;3.15;2.78;;;;;;;;;;5075703;28;20052;-89
2023/01/06 03:35:14;;;;;;;3.40;3.08;;;;;;;;;;5075632;28;20052;-89
2023/01/06 03:37:44;;;;;;;2.72;2.53;;;;;;;;;;5075445;28;20450;-89
2023/01/06 03:40:17;;;;;;;2.65;2.45;;;;;;;;;;5074507;28;20110;-89
2023/01/06 03:45:37;;;;;;;2.45;2.35;;;;;;;;;;5074999;28;20129;-88
2023/01/06 03:48:07;;;;;;;2.22;1.95;;;;;;;;;;5074739;28;20492;-88
2023/01/06 03:50:36;;;;;;;3.38;3.17;;;;;;;;;;5074544;28;20060;-88
2023/01/06 03:53:09;;;;;;;1.45;1.35;;;;;;;;;;5074885;28;20044;-89
2023/01/06 03:55:38;;;;;;;2.63;2.50;;;;;;;;;;5073589;28;20446;-89
2023/01/06 03:58:06;;;;;;;0.85;0.85;;;;;;;;;;5075010;28;20056;-89
2023/01/06 04:00:35;;;;;;;1.67;1.63;;;;;;;;;;5074959;28;20044;-89
2023/01/06 04:03:02;;;;;;;3.08;2.85;;;;;;;;;;5074711;28;20048;-89
2023/01/06 04:05:29;;;;;;;3.47;0.85;;;;;;;;;;5074372;28;20068;-88
2023/01/06 04:07:56;;;;;;;2.15;2.05;;;;;;;;;;5074839;28;20049;-89
2023/01/06 04:10:23;;;;;;;1.60;1.50;;;;;;;;;;5074545;28;20052;-88
2023/01/06 04:12:51;;;;;;;1.70;1.60;;;;;;;;;;5064437;28;20045;-88
2023/01/06 04:15:18;;;;;;;2.97;2.78;;;;;;;;;;5054121;28;20442;-88
2023/01/06 04:17:45;;;;;;;2.10;1.80;;;;;;;;;;5054145;28;20103;-89
2023/01/06 04:20:14;;;;;;;5.60;5.22;;;;;;;;;;5054524;28;20047;-88
2023/01/06 04:22:40;;;;;;;1.33;1.27;;;;;;;;;;5054678;28;20421;-88
2023/01/06 04:25:07;;;;;;;7.18;6.57;;;;;;;;;;5054187;28;20393;-89
2023/01/06 04:27:34;;;;;;;1.35;1.30;;;;;;;;;;5053744;28;20103;-90
2023/01/06 04:30:02;;;;;;;1.98;1.88;;;;;;;;;;5073684;28;20048;-89
2023/01/06 04:32:28;;;;;;;3.47;3.17;;;;;;;;;;5074159;28;20049;-88
2023/01/06 04:34:55;;;;;;;1.10;1.10;;;;;;;;;;5074066;28;20055;-88
2023/01/06 04:37:21;;;;;;;2.53;2.35;;;;;;;;;;5074049;28;20119;-88
2023/01/06 04:39:48;;;;;;;3.95;3.67;;;;;;;;;;5073280;28;20052;-87
2023/01/06 04:42:15;;;;;;;4.35;3.97;;;;;;;;;;5073972;28;20052;-88
2023/01/06 04:44:42;;;;;;;1.85;1.75;;;;;;;;;;5072726;28;20041;-88
2023/01/06 04:47:10;;;;;;;5.75;1.48;;;;;;;;;;5073660;28;20059;-88
2023/01/06 04:49:36;;;;;;;1.77;1.48;;;;;;;;;;5073577;28;20458;-88
2023/01/06 04:52:03;;;;;;;0.80;0.80;;;;;;;;;;5073597;28;20049;-88
2023/01/06 04:54:29;;;;;;;1.23;1.13;;;;;;;;;;5073102;28;20053;-87
2023/01/06 04:56:56;;;;;;;2.33;2.05;;;;;;;;;;5073575;28;20121;-87
2023/01/06 04:59:22;;;;;;;1.70;1.60;;;;;;;;;;5073254;28;20044;-88
2023/01/06 05:01:49;;;;;;;3.65;3.35;;;;;;;;;;5072944;28;20093;-88
2023/01/06 05:04:17;;;;;;;2.40;2.30;;;;;;;;;;5073210;28;20070;-88
2023/01/06 05:06:43;;;;;;;1.67;1.58;;;;;;;;;;5073388;28;20484;-88
2023/01/06 05:09:10;;;;;;;1.50;1.42;;;;;;;;;;5073471;28;20052;-87
2023/01/06 05:11:37;;;;;;;4.70;3.85;;;;;;;;;;5073156;28;20045;-88
2023/01/06 05:14:03;;;;;;;3.15;2.85;;;;;;;;;;5073071;28;20094;-88
2023/01/06 05:16:30;;;;;;;2.63;2.53;;;;;;;;;;5073363;28;20048;-88
2023/01/06 05:18:57;;;;;;;2.60;2.40;;;;;;;;;;5070268;28;20052;-88
2023/01/06 05:21:26;;;;;;;1.60;1.50;;;;;;;;;;5073163;28;20044;-88
2023/01/06 05:23:53;;;;;;;1.50;1.40;;;;;;;;;;5073091;28;20104;-87
2023/01/06 05:26:21;;;;;;;3.28;1.85;;;;;;;;;;5072875;28;20047;-88
2023/01/06 05:28:47;;;;;;;2.78;2.25;;;;;;;;;;5073122;28;20049;-88
2023/01/06 05:31:14;;;;;;;3.05;2.85;;;;;;;;;;5072748;28;20048;-88
2023/01/06 05:33:41;;;;;;;7.25;3.33;;;;;;;;;;5073027;28;20048;-89
2023/01/06 05:36:08;;;;;;;3.47;3.15;;;;;;;;;;5072015;28;20045;-89
2023/01/06 05:38:36;;;;;;;4.88;4.68;;;;;;;;;;5073111;28;20413;-89
2023/01/06 05:41:03;;;;;;;2.30;2.17;;;;;;;;;;5071906;28;20052;-89
2023/01/06 05:43:30;;;;;;;4.53;2.40;;;;;;;;;;5072634;28;20094;-88
2023/01/06 05:45:56;;;;;;;0.80;0.80;;;;;;;;;;5072766;28;20048;-89
2023/01/06 05:48:24;;;;;;;2.28;2.17;;;;;;;;;;5072959;28;20114;-89
2023/01/06 05:50:51;;;;;;;0.98;0.98;;;;;;;;;;5071093;28;20047;-88
2023/01/06 05:53:18;;;;;;;1.83;1.73;;;;;;;;;;5072798;28;20048;-89
2023/01/06 05:55:45;;;;;;;1.77;1.67;;;;;;;;;;5072411;28;20048;-89
2023/01/06 05:58:12;;;;;;;2.33;2.22;;;;;;;;;;5072654;28;20438;-89
2023/01/06 06:00:38;;;;;;;3.55;3.35;;;;;;;;;;5072165;28;20067;-85
2023/01/06 06:03:05;;;;;;;1.67;1.60;;;;;;;;;;5071231;28;20049;-85
2023/01/06 06:05:31;;;;;;;2.05;1.95;;;;;;;;;;5072183;28;20074;-87
2023/01/06 06:07:58;;;;;;;1.92;1.83;;;;;;;;;;5071530;28;20037;-88
2023/01/06 06:10:24;;;;;;;2.20;2.08;;;;;;;;;;5066630;28;20044;-89
2023/01/06 06:12:52;;;;;;;1.27;1.25;;;;;;;;;;5052808;28;20045;-88
2023/01/06 06:15:19;;;;;;;1.73;1.63;;;;;;;;;;5052624;28;20056;-88
2023/01/06 06:17:45;;;;;;;2.05;1.95;;;;;;;;;;5052459;28;20122;-88
2023/01/06 06:20:12;;;;;;;2.00;1.90;;;;;;;;;;5052623;28;20045;-87
2023/01/06 06:22:38;;;;;;;1.10;1.10;;;;;;;;;;5052488;28;20049;-88
2023/01/06 06:25:05;;;;;;;2.05;1.67;;;;;;;;;;5058872;28;20041;-88
2023/01/06 06:27:31;;;;;;;4.47;4.10;;;;;;;;;;5067287;28;20045;-88
2023/01/06 06:29:59;;;;;;;1.58;1.48;;;;;;;;;;5051841;28;20098;-88
2023/01/06 06:32:29;;;;;;;3.55;3.35;;;;;;;;;;5061797;28;20052;-89
2023/01/06 06:34:55;;;;;;;3.30;2.30;;;;;;;;;;5071940;28;20052;-88
2023/01/06 06:37:22;;;;;;;2.63;2.42;;;;;;;;;;5072159;28;20110;-88
2023/01/06 06:39:48;;;;;;;3.60;2.17;;;;;;;;;;5069395;28;20052;-88
2023/01/06 06:42:15;;;;;;;2.83;2.65;;;;;;;;;;5071795;28;20558;-88
2023/01/06 06:44:41;;;;;;;3.95;3.65;;;;;;;;;;5070233;28;20106;-88
2023/01/06 06:47:09;;;;;;;5.88;2.85;;;;;;;;;;5070770;28;20493;-88
2023/01/06 06:49:36;;;;;;;2.80;2.60;;;;;;;;;;5072186;28;20052;-89
2023/01/06 06:52:02;;;;;;;2.45;2.25;;;;;;;;;;5073367;28;20045;-88
2023/01/06 06:54:29;;;;;;;2.17;2.03;;;;;;;;;;5075515;28;20072;-87
2023/01/06 06:56:55;;;;;;;2.45;2.33;;;;;;;;;;5072493;28;20064;-88
2023/01/06 06:59:22;;;;;;;3.92;3.35;;;;;;;;;;5060894;28;20053;-87
2023/01/06 07:01:48;;;;;;;2.17;2.08;;;;;;;;;;5069381;28;20094;-88
2023/01/06 07:04:21;;;;;;;2.85;2.55;;;;;;;;;;5074237;28;20110;-89
2023/01/06 07:06:47;;;;;;;2.03;1.90;;;;;;;;;;5057715;28;20084;-88
2023/01/06 07:09:14;;;;;;;2.72;2.42;;;;;;;;;;5055078;28;20098;-88
2023/01/06 07:11:40;;;;;;;4.47;4.03;;;;;;;;;;5054956;28;20440;-88
2023/01/06 07:14:07;;;;;;;2.45;2.25;;;;;;;;;;5066627;28;20052;-88
2023/01/06 07:16:33;;;;;;;2.45;2.30;;;;;;;;;;5075525;28;20059;-87
2023/01/06 07:19:00;;;;;;;2.67;2.53;;;;;;;;;;5075463;28;20446;-88
2023/01/06 07:21:28;;;;;;;2.53;2.33;;;;;;;;;;5074968;28;20049;-88
2023/01/06 07:23:54;;;;;;;5.10;4.70;;;;;;;;;;5074940;28;20090;-88
2023/01/06 07:26:21;;;;;;;2.90;2.70;;;;;;;;;;5075021;28;20488;-88
2023/01/06 07:28:50;;;;;;;3.65;3.00;;;;;;;;;;5075179;28;20056;-87
2023/01/06 07:31:17;;;;;;;3.08;2.75;;;;;;;;;;5074712;28;20133;-88
2023/01/06 07:33:43;;;;;;;2.25;2.03;;;;;;;;;;5074659;28;20110;-88
2023/01/06 07:36:10;;;;;;;1.83;1.63;;;;;;;;;;5074483;28;20105;-88
2023/01/06 07:38:37;;;;;;;4.65;3.97;;;;;;;;;;5074846;28;20044;-88
2023/01/06 07:41:04;;;;;;;5.72;3.22;;;;;;;;;;5074471;28;20814;-89
2023/01/06 07:43:31;;;;;;;3.70;3.50;;;;;;;;;;5074786;28;20508;-87
2023/01/06 07:45:57;;;;;;;4.30;4.05;;;;;;;;;;5075068;28;20052;-88
2023/01/06 07:48:24;;;;;;;5.47;5.18;;;;;;;;;;5074841;28;20053;-88
2023/01/06 07:50:50;;;;;;;4.90;4.55;;;;;;;;;;5074718;28;20052;-87
2023/01/06 07:53:17;;;;;;;6.32;5.82;;;;;;;;;;5074750;28;20056;-87
2023/01/06 07:55:51;;;;;;;4.15;3.95;;;;;;;;;;5074897;28;20052;-87
2023/01/06 07:58:18;;;;;;;2.05;1.95;;;;;;;;;;5074789;28;20136;-87
2023/01/06 08:00:45;;;;;;;4.03;3.83;;;;;;;;;;5074735;28;20123;-87
2023/01/06 08:03:11;;;;;;;6.45;3.40;;;;;;;;;;5073696;28;20045;-87
2023/01/06 08:05:40;;;;;;;3.67;3.10;;;;;;;;;;5074261;28;20045;-87
2023/01/06 08:08:06;;;;;;;10.07;6.20;;;;;;;;;;5074615;28;20051;-87
2023/01/06 08:10:33;;;;;;;5.90;5.32;;;;;;;;;;5074099;28;20048;-88
2023/01/06 08:13:01;;;;;;;7.05;6.53;;;;;;;;;;5074444;28;20040;-88
2023/01/06 08:15:27;;;;;;;4.80;4.38;;;;;;;;;;5074246;28;20126;-87
2023/01/06 08:17:54;;;;;;;5.75;5.15;;;;;;;;;;5073184;28;20125;-88
2023/01/06 08:20:20;;;;;;;7.03;6.45;;;;;;;;;;5069639;28;20048;-88
2023/01/06 08:22:47;;;;;;;11.32;10.27;;;;;;;;;;5073793;28;20045;-88
2023/01/06 08:25:13;;;;;;;14.73;12.43;;;;;;;;;;5074158;28;20048;-88
2023/01/06 08:27:40;;;;;;;8.65;8.02;;;;;;;;;;5074127;28;20048;-88
2023/01/06 08:30:09;;;;;;;8.23;7.53;;;;;;;;;;5073957;28;20044;-88
2023/01/06 08:32:35;;;;;;;3.03;2.83;;;;;;;;;;5073895;28;20056;-88
2023/01/06 08:35:02;;;;;;;4.00;3.70;;;;;;;;;;5056347;28;20049;-88
2023/01/06 08:37:28;;;;;;;8.75;6.43;;;;;;;;;;5054317;28;20114;-88
2023/01/06 08:39:55;;;;;;;9.15;8.30;;;;;;;;;;5054211;28;20451;-89
2023/01/06 08:42:21;;;;;;;9.27;8.00;;;;;;;;;;5069435;28;20049;-88
2023/01/06 08:44:48;;;;;;;8.30;7.45;;;;;;;;;;5074091;28;20049;-88
2023/01/06 08:47:16;;;;;;;6.85;5.07;;;;;;;;;;5073855;28;20048;-89
2023/01/06 08:49:42;;;;;;;4.32;4.03;;;;;;;;;;5073826;28;20094;-89
2023/01/06 08:52:09;;;;;;;9.80;8.35;;;;;;;;;;5073997;28;20045;-89
2023/01/06 08:54:35;;;;;;;6.28;5.78;;;;;;;;;;5073875;28;20052;-89
2023/01/06 08:57:02;;;;;;;8.13;7.45;;;;;;;;;;5073966;28;20041;-89
2023/01/06 08:59:28;;;;;;;5.43;4.78;;;;;;;;;;5073471;28;20492;-89
2023/01/06 09:01:55;;;;;;;7.50;6.75;;;;;;;;;;5073282;28;20049;-89
2023/01/06 09:04:23;;;;;;;7.57;7.07;;;;;;;;;;5073567;28;20053;-88
2023/01/06 09:06:50;;;;;;;7.35;6.90;;;;;;;;;;5073978;28;20109;-89
2023/01/06 09:09:17;;;;;;;9.68;8.88;;;;;;;;;;5065396;28;20049;-88
2023/01/06 09:11:44;;;;;;;11.40;8.98;;;;;;;;;;5067017;28;20045;-89
2023/01/06 09:14:11;;;;;;;15.15;9.93;;;;;;;;;;5073605;28;20052;-88
2023/01/06 09:16:37;;;;;;;9.23;6.15;;;;;;;;;;5073388;28;20455;-88
2023/01/06 09:19:04;;;;;;;7.50;6.80;;;;;;;;;;5073449;28;20082;-88
2023/01/06 09:21:31;;;;;;;9.30;8.55;;;;;;;;;;5073153;28;20056;-88
2023/01/06 09:23:58;;;;;;;7.28;6.63;;;;;;;;;;5073807;28;20048;-89
2023/01/06 09:26:25;;;;;;;9.10;6.13;;;;;;;;;;5073445;28;20563;-90
2023/01/06 09:28:51;;;;;;;4.60;4.10;;;;;;;;;;5073484;28;20491;-89
2023/01/06 09:31:18;;;;;;;8.73;6.85;;;;;;;;;;5073691;28;20052;-90
2023/01/06 09:33:44;;;;;;;13.80;10.35;;;;;;;;;;5073748;28;20055;-90
2023/01/06 09:36:11;;;;;;;7.13;5.80;;;;;;;;;;5073664;28;20048;-90
2023/01/06 09:38:39;;;;;;;7.65;6.43;;;;;;;;;;5073640;28;20045;-90
2023/01/06 09:41:16;;;;;;;8.68;8.00;;;;;;;;;;5072933;28;20052;-91
2023/01/06 09:43:46;;;;;;;9.90;9.27;;;;;;;;;;5064071;28;20107;-90
2023/01/06 09:46:15;;;;;;;6.70;5.78;;;;;;;;;;5053187;28;20053;-89
2023/01/06 09:48:45;;;;;;;9.73;6.88;;;;;;;;;;5053881;28;20459;-89
2023/01/06 09:51:15;;;;;;;4.90;4.57;;;;;;;;;;5053562;28;20045;-90
2023/01/06 09:53:44;;;;;;;10.68;9.63;;;;;;;;;;5053036;28;20049;-90
2023/01/06 09:56:13;;;;;;;4.50;4.20;;;;;;;;;;5067075;28;20052;-90
2023/01/06 09:58:42;;;;;;;5.22;4.78;;;;;;;;;;5073314;28;20052;-90
2023/01/06 10:01:10;;;;;;;5.57;5.10;;;;;;;;;;5073263;28;20041;-90
2023/01/06 10:03:37;;;;;;;9.55;8.68;;;;;;;;;;5072885;28;20044;-90
2023/01/06 10:06:09;;;;;;;8.73;7.80;;;;;;;;;;5073318;28;20113;-90
2023/01/06 10:08:39;;;;;;;7.93;7.35;;;;;;;;;;5072859;28;20052;-91
2023/01/06 10:11:11;;;;;;;6.45;5.95;;;;;;;;;;5073257;28;20441;-89
2023/01/06 10:13:43;;;;;;;6.72;6.05;;;;;;;;;;5073305;28;20106;-89
2023/01/06 10:16:12;;;;;;;3.55;3.35;;;;;;;;;;5073416;28;20078;-88
2023/01/06 10:18:43;;;;;;;5.97;5.57;;;;;;;;;;5073315;28;20048;-90
2023/01/06 10:21:12;;;;;;;2.22;2.13;;;;;;;;;;5073171;28;20056;-90
2023/01/06 10:23:51;;;;;;;2.95;2.83;;;;;;;;;;5072873;28;20045;-90
2023/01/06 10:26:25;;;;;;;3.08;2.97;;;;;;;;;;5053577;28;20103;-92
2023/01/06 10:28:53;;;;;;;4.22;4.00;;;;;;;;;;5076436;28;20049;-92
2023/01/06 10:31:22;;;;;;;3.92;3.78;;;;;;;;;;5066226;28;20094;-91
2023/01/06 10:33:51;;;;;;;6.32;6.10;;;;;;;;;;5076735;28;20488;-90
2023/01/06 10:36:19;;;;;;;3.88;3.67;;;;;;;;;;5077185;28;20049;-90
2023/01/06 10:38:47;;;;;;;2.47;2.38;;;;;;;;;;5076777;28;20056;-90
2023/01/06 10:41:18;;;;;;;2.95;2.83;;;;;;;;;;5076889;28;20415;-91
2023/01/06 10:43:44;;;;;;;;;;;;;;;;;;5076939;28;20395;-91
2023/01/06 10:46:12;;;;;;;3.35;3.25;;;;;;;;;;5056848;28;19970;-90
2023/01/06 10:48:39;;;;;;;3.22;3.13;;;;;;;;;;5056316;28;20566;-90
2023/01/06 10:51:17;;;;;;;2.67;2.58;;;;;;;;;;5067327;28;20090;-91
2023/01/06 10:53:44;;;;;;;2.55;2.45;;;;;;;;;;5076575;28;20415;-91
2023/01/06 10:56:10;;;;;;;3.22;3.10;;;;;;;;;;5076669;28;20044;-92
2023/01/06 10:58:41;;;;;;;2.50;2.40;;;;;;;;;;5076440;28;20048;-90
2023/01/06 11:01:08;;;;;;;2.80;2.70;;;;;;;;;;5076214;28;20052;-90
2023/01/06 11:03:37;;;;;;;2.72;2.63;;;;;;;;;;5076439;28;20048;-91
2023/01/06 11:06:05;;;;;;;2.75;2.65;;;;;;;;;;5075470;28;20044;-91
2023/01/06 11:08:32;;;;;;;4.30;4.00;;;;;;;;;;5075723;28;20045;-91
2023/01/06 11:10:59;;;;;;;1.70;1.60;;;;;;;;;;5059726;28;20456;-91
2023/01/06 11:13:27;;;;;;;1.83;1.73;;;;;;;;;;5060024;28;20717;-92
2023/01/06 11:15:54;;;;;;;4.55;4.35;;;;;;;;;;5075846;28;20060;-91
2023/01/06 11:18:22;;;;;;;2.92;2.83;;;;;;;;;;5075947;28;20087;-91
2023/01/06 11:21:03;;;;;;;2.10;2.00;;;;;;;;;;5077069;28;20104;-92
2023/01/06 11:23:30;;;;;;;3.85;3.67;;;;;;;;;;5078006;28;20044;-92
2023/01/06 11:26:00;;;;;;;3.65;3.53;;;;;;;;;;5075995;28;20130;-91
2023/01/06 11:28:27;;;;;;;4.30;4.18;;;;;;;;;;5075794;28;20053;-91
2023/01/06 11:30:54;;;;;;;3.38;3.20;;;;;;;;;;5061016;28;20107;-92
2023/01/06 11:33:23;;;;;;;2.88;2.75;;;;;;;;;;5055846;28;20049;-92
2023/01/06 11:35:50;;;;;;;7.88;7.57;;;;;;;;;;5066253;28;20378;-89
2023/01/06 11:38:18;;;;;;;2.38;2.28;;;;;;;;;;5074259;28;20044;-89
2023/01/06 11:40:46;;;;;;;2.72;2.63;;;;;;;;;;5075175;28;20425;-89
2023/01/06 11:43:14;;;;;;;4.25;3.95;;;;;;;;;;5074943;28;20549;-90
2023/01/06 11:45:43;;;;;;;3.92;3.72;;;;;;;;;;5073875;28;20052;-89
2023/01/06 11:48:14;;;;;;;3.03;2.92;;;;;;;;;;5075688;28;20076;-89
2023/01/06 11:50:40;;;;;;;;;;;;;;;;;;5075962;28;20052;-90
2023/01/06 11:53:15;;;;;;;4.20;4.00;;;;;;;;;;5075311;28;19920;-90
2023/01/06 11:55:54;;;;;;;3.13;2.92;;;;;;;;;;5074880;28;20531;-90
2023/01/06 11:58:26;;;;;;;3.47;3.35;;;;;;;;;;5075307;28;20044;-90
2023/01/06 12:00:56;;;;;;;2.25;2.15;;;;;;;;;;5075120;28;20049;-90
2023/01/06 12:03:25;;;;;;;1.40;1.40;;;;;;;;;;5057410;28;20464;-90
2023/01/06 12:05:54;;;;;;;2.53;2.42;;;;;;;;;;5068053;28;20053;-90
2023/01/06 12:08:23;;;;;;;2.42;2.33;;;;;;;;;;5074841;28;20504;-90
2023/01/06 12:10:54;;;;;;;3.13;3.00;;;;;;;;;;5062631;28;20106;-90
2023/01/06 12:13:21;;;;;;;3.78;3.65;;;;;;;;;;5055187;28;20049;-90
2023/01/06 12:15:51;;;;;;;3.40;3.30;;;;;;;;;;5054809;28;20443;-90
2023/01/06 12:18:20;;;;;;;3.92;3.72;;;;;;;;;;5054825;28;20052;-90
2023/01/06 12:20:47;;;;;;;2.97;2.78;;;;;;;;;;5055065;28;20049;-90
2023/01/06 12:23:16;;;;;;;2.55;2.45;;;;;;;;;;5054373;28;20550;-90
2023/01/06 12:25:44;;;;;;;3.20;3.08;;;;;;;;;;5054802;28;20128;-90
2023/01/06 12:28:15;;;;;;;3.33;3.13;;;;;;;;;;5055071;28;20512;-90
2023/01/06 12:30:41;;;;;;;;;;;;;;;;;;5055045;28;20099;-90
2023/01/06 12:33:11;;;;;;;2.35;2.25;;;;;;;;;;5054548;28;19998;-89
2023/01/06 12:35:39;;;;;;;3.15;2.97;;;;;;;;;;5054446;28;20095;-90
2023/01/06 12:38:09;;;;;;;6.18;5.88;;;;;;;;;;5054576;28;20398;-90
2023/01/06 12:40:40;;;;;;;2.28;2.17;;;;;;;;;;5053856;28;20132;-88
2023/01/06 12:43:14;;;;;;;2.30;2.20;;;;;;;;;;5054321;28;20045;-91
2023/01/06 12:45:42;;;;;;;2.85;2.65;;;;;;;;;;5068368;28;20090;-89
2023/01/06 12:48:17;;;;;;;2.35;2.25;;;;;;;;;;5074041;28;20773;-89
2023/01/06 12:50:45;;;;;;;3.08;2.97;;;;;;;;;;5071289;28;20048;-89
2023/01/06 12:53:15;;;;;;;2.15;2.05;;;;;;;;;;5074191;28;20044;-89
2023/01/06 12:55:46;;;;;;;1.58;1.55;;;;;;;;;;5074116;28;20048;-90
2023/01/06 12:58:17;;;;;;;3.20;3.10;;;;;;;;;;5073894;28;20056;-89
2023/01/06 13:00:49;;;;;;;2.38;2.28;;;;;;;;;;5073972;28;20057;-89
2023/01/06 13:03:32;;;;;;;2.80;2.70;;;;;;;;;;5073890;28;20117;-89
2023/01/06 13:06:05;;;;;;;2.92;2.83;;;;;;;;;;5073766;28;20118;-89
2023/01/06 13:08:38;;;;;;;3.00;2.03;;;;;;;;;;5074110;28;20125;-90
2023/01/06 13:11:11;;;;;;;1.85;1.75;;;;;;;;;;5073919;28;20102;-89
2023/01/06 13:13:56;;;;;;;2.40;2.30;;;;;;;;;;5073558;28;20044;-89
2023/01/06 13:16:25;;;;;;;2.28;2.08;;;;;;;;;;5073759;28;20049;-91
2023/01/06 13:18:58;;;;;;;3.75;3.53;;;;;;;;;;5073479;28;20401;-90
2023/01/06 13:21:25;;;;;;;1.60;1.50;;;;;;;;;;5073472;28;20086;-90
2023/01/06 13:24:09;;;;;;;3.00;2.90;;;;;;;;;;5073003;28;20098;-89
2023/01/06 13:26:44;;;;;;;3.17;3.05;;;;;;;;;;5073491;28;20102;-90
2023/01/06 13:29:18;;;;;;;2.17;2.05;;;;;;;;;;5072941;28;20102;-90
2023/01/06 13:31:55;;;;;;;4.13;3.83;;;;;;;;;;5058298;28;20067;-90
2023/01/06 13:34:42;;;;;;;2.85;2.75;;;;;;;;;;5053350;28;20041;-90
2023/01/06 13:37:18;;;;;;;3.03;2.92;;;;;;;;;;5035840;28;20118;-90
2023/01/06 13:39:47;;;;;;;3.15;3.05;;;;;;;;;;5052819;28;20049;-89
2023/01/06 13:42:15;;;;;;;2.40;2.28;;;;;;;;;;5055425;28;20055;-89
2023/01/06 13:44:44;;;;;;;3.42;3.30;;;;;;;;;;5072886;28;20480;-90
2023/01/06 13:47:12;;;;;;;3.45;3.17;;;;;;;;;;5073199;28;20048;-90
2023/01/06 13:49:40;;;;;;;8.15;2.42;;;;;;;;;;5073067;28;20049;-90
2023/01/06 13:52:07;;;;;;;4.18;3.97;;;;;;;;;;5072712;28;20466;-90
2023/01/06 13:55:07;;;;;;;3.75;3.53;;;;;;;;;;5072934;28;20515;-90
2023/01/06 13:57:35;;;;;;;1.98;1.88;;;;;;;;;;5010937;28;20124;-90
2023/01/06 14:00:23;;;;;;;2.85;2.75;;;;;;;;;;5011105;28;20054;-91
2023/01/06 14:03:00;;;;;;;7.07;6.68;;;;;;;;;;5008358;28;20085;-90
2023/01/06 14:05:45;;;;;;;2.92;2.83;;;;;;;;;;5010807;28;20050;-90
2023/01/06 14:08:15;;;;;;;3.38;2.30;;;;;;;;;;4991333;28;20483;-90
2023/01/06 14:10:43;;;;;;;1.90;1.80;;;;;;;;;;4991301;28;20050;-90
2023/01/06 14:13:18;;;;;;;5.82;5.63;;;;;;;;;;4991193;28;20109;-90
2023/01/06 14:15:54;;;;;;;2.28;2.17;;;;;;;;;;4991339;28;20498;-89
2023/01/06 14:18:32;;;;;;;2.45;2.35;;;;;;;;;;4991036;28;20129;-90
2023/01/06 14:21:00;;;;;;;2.65;2.55;;;;;;;;;;4991273;28;20141;-89
2023/01/06 14:23:26;;;;;;;2.78;2.40;;;;;;;;;;4991199;28;20525;-90
2023/01/06 14:25:54;;;;;;;1.42;1.40;;;;;;;;;;4996408;28;20045;-96
2023/01/06 14:28:26;;;;;;;1.63;1.38;;;;;;;;;;5029341;28;20467;-91
2023/01/06 14:31:13;;;;;;;2.67;2.58;;;;;;;;;;5052737;28;20438;-91
2023/01/06 14:33:42;;;;;;;1.92;1.83;;;;;;;;;;5052994;28;20049;-90
2023/01/06 14:36:12;;;;;;;1.63;1.52;;;;;;;;;;5053030;28;20049;-92
2023/01/06 14:38:42;;;;;;;1.65;1.55;;;;;;;;;;5052956;28;20049;-91
2023/01/06 14:41:15;;;;;;;2.25;2.15;;;;;;;;;;5053043;28;20053;-90
2023/01/06 14:43:47;;;;;;;2.28;2.08;;;;;;;;;;5052766;28;20049;-90
2023/01/06 14:46:16;;;;;;;6.50;4.50;;;;;;;;;;5052677;28;20060;-90
2023/01/06 14:48:47;;;;;;;1.17;1.15;;;;;;;;;;5053028;28;20532;-90
2023/01/06 14:51:16;;;;;;;2.10;2.00;;;;;;;;;;5059049;28;20056;-90
2023/01/06 14:53:43;;;;;;;3.72;3.40;;;;;;;;;;5072374;28;20051;-90
2023/01/06 14:56:15;;;;;;;2.70;2.58;;;;;;;;;;5067734;28;20048;-90